• Join FlightAware (Why Join?)
  • Login
  • US Flag 
08:49PM EDT


 

Airport Tracker/Info


-or-


 

Live Flight TrackerFlight Track Log ✈ JUS327 ✈ 11-Apr-2013 ✈ KBRO - KTCL

Flight Track Log - Related Links

Times and Time Zones

All times are in EDT time to prevent confusion due to time zone crossing. See the JUS327 flight status page for this flight to view local times or setup timezone preferences in your user account.

Time Position Orientation Groundspeed Altitude Reporting Facility
EDT Latitude Longitude Course Direction KTS MPH feet Rate Location/Type
12:27PM 25.9142 -97.4344 322° Northwest 154 177 500  Level Houston Center
12:27PM 25.9281 -97.4464 322° Northwest 151 174 1,600 2,040 Climbing Houston Center
12:28PM 25.9819 -97.4578 349° North 192 221 3,400 1,680 Climbing Houston Center
12:29PM 26.0411 -97.4592 359° North 206 237 5,100 1,500 Climbing Houston Center
12:30PM 26.0581 -97.4578 North 225 259 5,300 2,460 Climbing Houston Center
12:31PM 26.1400 -97.4547 North 272 313 8,300 2,280 Climbing Houston Center
12:32PM 26.2194 -97.4564 359° North 285 328 10,100 1,320 Climbing Houston Center
12:33PM 26.3250 -97.4558 360° North 354 407 11,100 1,620 Climbing Houston Center
12:34PM 26.4339 -97.4531 North 387 445 13,500 2,280 Climbing Houston Center
12:35PM 26.5506 -97.4489 North 389 448 15,900 1,800 Climbing Houston Center
12:36PM 26.6647 -97.4497 360° North 407 468 17,300 1,860 Climbing Houston Center
12:37PM 26.7939 -97.4508 360° North 428 493 19,800 2,220 Climbing Houston Center
12:38PM 26.9125 -97.4431 North 427 491 21,900 1,380 Climbing Houston Center
12:39PM 27.0317 -97.4533 356° North 430 495 22,700 840 Climbing Houston Center
12:40PM 27.1439 -97.4492 North 452 520 23,700 1,200 Climbing Houston Center
12:41PM 27.2969 -97.4306 North 461 531 25,300 1,200 Climbing Houston Center
12:42PM 27.4028 -97.3317 40° Northeast 503 579 26,300 900 Climbing Houston Center
12:43PM 27.4950 -97.2047 51° Northeast 519 597 27,200 1,080 Climbing Houston Center
12:44PM 27.6047 -97.0836 44° Northeast 520 598 28,600 1,200 Climbing Houston Center
12:45PM 27.6961 -96.9556 51° Northeast 525 604 29,800 1,260 Climbing Houston Center
12:46PM 27.7925 -96.8339 48° Northeast 522 601 31,200 1,200 Climbing Houston Center
12:47PM 27.8867 -96.7164 48° Northeast 512 589 32,300 780 Climbing Houston Center
12:48PM 27.9717 -96.5911 52° Northeast 506 582 32,900 540 Climbing Houston Center
12:49PM 28.0889 -96.4556 46° Northeast 503 579 33,500 480 Climbing Houston Center
12:50PM 28.1689 -96.3206 56° Northeast 511 588 34,000 480 Climbing Houston Center
12:51PM 28.2469 -96.1814 57° Northeast 522 601 34,600 420 Climbing Houston Center
12:52PM 28.3378 -96.0578 50° Northeast 516 594 34,900 120 Climbing Houston Center
12:53PM 28.4064 -95.8850 66° East 524 603 34,900  Level Houston Center
12:54PM 28.4475 -95.7256 74° East 526 605 34,900  Level Houston Center
12:56PM 28.4772 -95.5578 79° East 541 623 34,900  Level Houston Center
12:57PM 28.5036 -95.3933 80° East 535 616 34,900  Level Houston Center
12:58PM 28.5253 -95.2258 82° East 536 617 34,900  Level Houston Center
12:59PM 28.5503 -95.0617 80° East 533 613 34,900  Level Houston Center
01:00PM 28.5753 -94.8681 82° East 522 601 34,900  Level Houston Center
01:01PM 28.5972 -94.7094 81° East 513 590 34,900  Level Houston Center
01:02PM 28.6181 -94.5511 81° East 510 587 34,900  Level Houston Center
01:03PM 28.6417 -94.3917 80° East 513 590 34,900  Level Houston Center
01:04PM 28.6631 -94.2333 81° East 510 587 34,900  Level Houston Center
01:05PM 28.6850 -94.0747 81° East 509 586 34,900  Level Houston Center
01:06PM 28.7108 -93.8836 81° East 512 589 34,900  Level Houston Center
01:07PM 28.7325 -93.7233 81° East 513 590 34,900  Level Houston Center
01:08PM 28.7542 -93.5622 81° East 515 593 34,900  Level Houston Center
01:09PM 28.7742 -93.4136 81° East 517 595 34,900  Level Houston Center
01:10PM 28.7964 -93.2175 83° East 521 600 34,900  Level Houston Center
01:11PM 28.8008 -93.0539 88° East 519 597 34,900  Level Houston Center
01:12PM 28.8064 -92.8892 88° East 521 600 34,900  Level Houston Center
01:13PM 28.8125 -92.7233 88° East 524 603 34,900  Level Houston Center
01:14PM 28.8178 -92.5556 88° East 530 610 34,900  Level Houston Center
01:15PM 28.8192 -92.3900 89° East 528 608 34,900  Level Houston Center
01:16PM 28.8594 -92.1922 77° East 535 616 34,900  Level Houston Center
01:17PM 28.9047 -92.0267 73° East 544 626 34,900  Level Houston Center
01:18PM 28.9578 -91.8644 69° East 545 627 34,900  Level Houston Center
01:19PM 29.0072 -91.7106 70° East 550 633 34,900  Level Houston Center
01:20PM 29.0658 -91.5550 67° East 540 621 34,900  Level Houston Center
01:21PM 29.1547 -91.3783 60° Northeast 542 624 34,900  Level Houston Center
01:22PM 29.2311 -91.2336 59° Northeast 534 615 34,900  Level Houston Center
01:23PM 29.3094 -91.0917 58° Northeast 530 610 34,900  Level Houston Center
01:25PM 29.3839 -90.9365 61° Northeast  Level FlightAware Approximate
01:25PM 29.3914 -90.7778 61° Northeast 514 592 34,900  Level Houston Center
01:26PM 29.4250 -90.6192 76° East 513 590 34,900  Level Houston Center
01:27PM 29.4664 -90.4294 76° East 513 590 34,900  Level Houston Center
01:28PM 29.5214 -90.2792 67° East 524 603 34,900  Level Houston Center
01:30PM 29.6128 -90.1528 50° Northeast 518 596 34,900  Level Houston Center
01:31PM 29.7089 -90.0269 49° Northeast 521 600 34,900  Level Houston Center
01:32PM 29.8031 -89.9003 49° Northeast 524 603 34,900  Level Houston Center
01:33PM 29.8964 -89.7753 49° Northeast 520 598 34,900  Level Houston Center
01:34PM 30.0089 -89.6194 50° Northeast 526 605 34,900  Level Houston Center
01:35PM 30.1028 -89.4956 49° Northeast 526 605 34,900  Level Houston Center
01:36PM 30.1961 -89.3675 50° Northeast 527 606 34,900  Level Houston Center
01:37PM 30.2897 -89.2408 49° Northeast 526 605 34,900  Level Houston Center
01:38PM 30.4017 -89.0850 50° Northeast 527 606 34,900  Level Houston Center
01:39PM 30.4958 -88.9578 49° Northeast 524 603 34,900  Level Houston Center
01:40PM 30.5861 -88.8489 46° Northeast 523 602 35,000  Climbing Houston Center
01:41PM 30.7158 -88.7897 21° North 501 577 34,900 -60 Descending Houston Center
01:42PM 30.8736 -88.7150 22° Northeast 506 582 34,900 -60 Level Houston Center
01:44PM 31.1464 -88.5914 21° North 510 587 34,800 -420 Descending Houston Center
01:45PM 31.2736 -88.5375 20° North 512 589 33,600 -1,200 Descending Houston Center
01:46PM 31.4044 -88.4806 20° North 502 578 32,400 -1,260 Descending Houston Center
01:47PM 31.5297 -88.4078 26° Northeast 501 577 31,000 -1,320 Descending Houston Center
01:48PM 31.6578 -88.3528 20° North 492 566 29,700 -1,380 Descending Houston Center
01:48PM 31.7114 -88.3375 14° North 485 558 29,200 -600 Descending Atlanta Center
01:49PM 31.8367 -88.2775 22° Northeast 480 552 29,000 -780 Descending Atlanta Center
01:50PM 31.9533 -88.2194 23° Northeast 466 536 27,700 -1,740 Descending Atlanta Center
01:51PM 32.0761 -88.1714 18° North 459 528 25,600 -1,860 Descending Atlanta Center
01:52PM 32.1950 -88.1081 24° Northeast 459 528 24,000 -2,100 Descending Atlanta Center
01:53PM 32.3117 -88.0519 22° Northeast 453 521 21,500 -2,520 Descending Atlanta Center
01:54PM 32.4281 -88.0006 20° North 448 516 19,000 -2,580 Descending Atlanta Center
01:55PM 32.5367 -87.9389 26° Northeast 436 502 16,400 -2,700 Descending Atlanta Center
01:56PM 32.5981 -87.9122 20° North 423 487 14,800 -2,820 Descending Atlanta Center
01:56PM 32.6531 -87.8875 21° North 417 480 13,400 -2,340 Descending Atlanta Center
01:57PM 32.7483 -87.8372 24° Northeast 411 473 11,500 -1,680 Descending Atlanta Center
01:58PM 32.8439 -87.7919 22° Northeast 387 445 10,200 -1,140 Descending Atlanta Center
01:59PM 32.9206 -87.7333 33° Northeast 349 402 9,300 -1,560 Descending Atlanta Center
02:00PM 32.9911 -87.6794 33° Northeast 318 366 7,100 -1,800 Descending Atlanta Center
02:01PM 33.0597 -87.6228 35° Northeast 314 361 5,700 -960 Descending Atlanta Center
02:02PM 33.1222 -87.5508 44° Northeast 287 330 5,200 -300 Descending Atlanta Center
02:03PM 33.1700 -87.4858 49° Northeast 284 327 5,200 -660 Level Atlanta Center
02:04PM 33.2217 -87.4258 44° Northeast 269 310 4,000 -1,260 Descending Atlanta Center
02:05PM 33.2792 -87.3833 32° Northeast 250 288 2,700 -720 Descending Atlanta Center
02:06PM 33.2981 -87.4536 288° West 163 188 2,600 -480 Descending Atlanta Center
02:07PM 33.2803 -87.4978 244° Southwest 136 157 1,700 -420 Descending Atlanta Center
02:08PM 33.2644 -87.5417 247° West 142 163 1,800 -180 Climbing Atlanta Center
02:09PM 33.2525 -87.5883 253° West 151 174 1,400 -240 Descending Atlanta Center
02:10PM 33.2506 -87.5908 227° Southwest 151 174 1,400  Level Atlanta Center